sensor_id;sensor_type;location;lat;lon;timestamp;temperature;humidity
40636;DHT22;26642;55.766;37.828;2022-11-25T00:01:29;7.60;61.60
40636;DHT22;26642;55.766;37.828;2022-11-25T00:03:56;7.60;61.60
40636;DHT22;26642;55.766;37.828;2022-11-25T00:06:27;7.60;61.40
40636;DHT22;26642;55.766;37.828;2022-11-25T00:08:58;7.60;61.50
40636;DHT22;26642;55.766;37.828;2022-11-25T00:11:24;7.60;61.50
40636;DHT22;26642;55.766;37.828;2022-11-25T00:13:50;7.50;61.40
40636;DHT22;26642;55.766;37.828;2022-11-25T00:16:19;7.50;61.40
40636;DHT22;26642;55.766;37.828;2022-11-25T00:18:50;7.50;61.50
40636;DHT22;26642;55.766;37.828;2022-11-25T00:21:19;7.50;61.40
40636;DHT22;26642;55.766;37.828;2022-11-25T00:23:53;7.50;61.50
40636;DHT22;26642;55.766;37.828;2022-11-25T00:26:20;7.50;61.50
40636;DHT22;26642;55.766;37.828;2022-11-25T00:28:46;7.50;61.50
40636;DHT22;26642;55.766;37.828;2022-11-25T00:33:40;7.50;61.60
40636;DHT22;26642;55.766;37.828;2022-11-25T00:36:18;7.50;61.70
40636;DHT22;26642;55.766;37.828;2022-11-25T00:42:34;7.50;61.60
40636;DHT22;26642;55.766;37.828;2022-11-25T00:45:19;7.50;61.70
40636;DHT22;26642;55.766;37.828;2022-11-25T00:47:45;7.50;61.80
40636;DHT22;26642;55.766;37.828;2022-11-25T00:50:10;7.50;61.80
40636;DHT22;26642;55.766;37.828;2022-11-25T00:52:36;7.50;61.80
40636;DHT22;26642;55.766;37.828;2022-11-25T00:55:03;7.50;61.80
40636;DHT22;26642;55.766;37.828;2022-11-25T00:57:29;7.50;61.90
40636;DHT22;26642;55.766;37.828;2022-11-25T00:59:55;7.50;61.90
40636;DHT22;26642;55.766;37.828;2022-11-25T01:02:21;7.50;62.00
40636;DHT22;26642;55.766;37.828;2022-11-25T01:04:47;7.50;62.10
40636;DHT22;26642;55.766;37.828;2022-11-25T01:07:15;7.50;62.10
40636;DHT22;26642;55.766;37.828;2022-11-25T01:09:41;7.50;62.00
40636;DHT22;26642;55.766;37.828;2022-11-25T01:12:07;7.50;61.90
40636;DHT22;26642;55.766;37.828;2022-11-25T01:14:33;7.50;61.80
40636;DHT22;26642;55.766;37.828;2022-11-25T01:16:59;7.50;61.80
40636;DHT22;26642;55.766;37.828;2022-11-25T01:19:25;7.50;61.70
40636;DHT22;26642;55.766;37.828;2022-11-25T01:21:51;7.50;61.60
40636;DHT22;26642;55.766;37.828;2022-11-25T01:24:17;7.50;61.70
40636;DHT22;26642;55.766;37.828;2022-11-25T01:26:44;7.50;61.70
40636;DHT22;26642;55.766;37.828;2022-11-25T01:29:17;7.50;61.80
40636;DHT22;26642;55.766;37.828;2022-11-25T01:31:43;7.50;61.70
40636;DHT22;26642;55.766;37.828;2022-11-25T01:34:21;7.50;61.60
40636;DHT22;26642;55.766;37.828;2022-11-25T01:36:48;7.50;61.70
40636;DHT22;26642;55.766;37.828;2022-11-25T01:39:24;7.50;61.70
40636;DHT22;26642;55.766;37.828;2022-11-25T01:41:50;7.50;61.70
40636;DHT22;26642;55.766;37.828;2022-11-25T01:44:20;7.50;61.70
40636;DHT22;26642;55.766;37.828;2022-11-25T01:49:56;7.50;61.50
40636;DHT22;26642;55.766;37.828;2022-11-25T01:52:19;7.50;61.50
40636;DHT22;26642;55.766;37.828;2022-11-25T01:55:02;7.50;61.60
40636;DHT22;26642;55.766;37.828;2022-11-25T01:57:46;7.40;61.60
40636;DHT22;26642;55.766;37.828;2022-11-25T02:00:14;7.50;61.50
40636;DHT22;26642;55.766;37.828;2022-11-25T02:02:44;7.50;61.50
40636;DHT22;26642;55.766;37.828;2022-11-25T02:05:13;7.40;61.30
40636;DHT22;26642;55.766;37.828;2022-11-25T02:07:41;7.50;61.30
40636;DHT22;26642;55.766;37.828;2022-11-25T02:10:11;7.50;61.40
40636;DHT22;26642;55.766;37.828;2022-11-25T02:12:43;7.50;61.40
40636;DHT22;26642;55.766;37.828;2022-11-25T02:15:11;7.40;61.30
40636;DHT22;26642;55.766;37.828;2022-11-25T02:17:37;7.40;61.20
40636;DHT22;26642;55.766;37.828;2022-11-25T02:20:07;7.40;61.20
40636;DHT22;26642;55.766;37.828;2022-11-25T02:25:33;7.40;61.10
40636;DHT22;26642;55.766;37.828;2022-11-25T02:30:32;7.40;61.10
40636;DHT22;26642;55.766;37.828;2022-11-25T02:32:59;7.40;61.00
40636;DHT22;26642;55.766;37.828;2022-11-25T02:35:31;7.40;61.00
40636;DHT22;26642;55.766;37.828;2022-11-25T02:38:08;7.40;61.10
40636;DHT22;26642;55.766;37.828;2022-11-25T02:43:26;7.40;61.00
40636;DHT22;26642;55.766;37.828;2022-11-25T02:48:19;7.40;61.10
40636;DHT22;26642;55.766;37.828;2022-11-25T02:50:46;7.40;61.10
40636;DHT22;26642;55.766;37.828;2022-11-25T02:53:13;7.40;61.00
40636;DHT22;26642;55.766;37.828;2022-11-25T02:55:39;7.40;61.00
40636;DHT22;26642;55.766;37.828;2022-11-25T02:58:05;7.40;61.00
40636;DHT22;26642;55.766;37.828;2022-11-25T03:00:31;7.40;60.90
40636;DHT22;26642;55.766;37.828;2022-11-25T03:02:57;7.40;60.80
40636;DHT22;26642;55.766;37.828;2022-11-25T03:05:24;7.40;60.80
40636;DHT22;26642;55.766;37.828;2022-11-25T03:07:50;7.40;60.80
40636;DHT22;26642;55.766;37.828;2022-11-25T03:10:18;7.40;60.80
40636;DHT22;26642;55.766;37.828;2022-11-25T03:12:44;7.40;60.90
40636;DHT22;26642;55.766;37.828;2022-11-25T03:15:11;7.30;60.80
40636;DHT22;26642;55.766;37.828;2022-11-25T03:17:37;7.30;60.80
40636;DHT22;26642;55.766;37.828;2022-11-25T03:20:05;7.40;60.80
40636;DHT22;26642;55.766;37.828;2022-11-25T03:22:31;7.30;60.70
40636;DHT22;26642;55.766;37.828;2022-11-25T03:24:57;7.40;60.80
40636;DHT22;26642;55.766;37.828;2022-11-25T03:27:23;7.40;60.80
40636;DHT22;26642;55.766;37.828;2022-11-25T03:29:49;7.30;60.80
40636;DHT22;26642;55.766;37.828;2022-11-25T03:32:15;7.30;60.80
40636;DHT22;26642;55.766;37.828;2022-11-25T03:34:41;7.40;60.90
40636;DHT22;26642;55.766;37.828;2022-11-25T03:37:08;7.30;60.90
40636;DHT22;26642;55.766;37.828;2022-11-25T03:39:34;7.40;61.00
40636;DHT22;26642;55.766;37.828;2022-11-25T03:42:00;7.30;60.70
40636;DHT22;26642;55.766;37.828;2022-11-25T03:44:26;7.30;60.70
40636;DHT22;26642;55.766;37.828;2022-11-25T03:46:52;7.30;60.70
40636;DHT22;26642;55.766;37.828;2022-11-25T03:49:18;7.30;60.70
40636;DHT22;26642;55.766;37.828;2022-11-25T03:51:44;7.40;60.70
40636;DHT22;26642;55.766;37.828;2022-11-25T03:54:11;7.30;60.60
40636;DHT22;26642;55.766;37.828;2022-11-25T03:57:00;7.30;60.40
40636;DHT22;26642;55.766;37.828;2022-11-25T03:59:27;7.30;60.20
40636;DHT22;26642;55.766;37.828;2022-11-25T04:01:53;7.30;60.20
40636;DHT22;26642;55.766;37.828;2022-11-25T04:04:20;7.30;60.20
40636;DHT22;26642;55.766;37.828;2022-11-25T04:06:46;7.30;60.20
40636;DHT22;26642;55.766;37.828;2022-11-25T04:09:12;7.30;60.30
40636;DHT22;26642;55.766;37.828;2022-11-25T04:11:38;7.30;61.60
40636;DHT22;26642;55.766;37.828;2022-11-25T04:14:24;7.40;62.20
40636;DHT22;26642;55.766;37.828;2022-11-25T04:16:51;7.40;62.10
40636;DHT22;26642;55.766;37.828;2022-11-25T04:19:17;7.40;61.90
40636;DHT22;26642;55.766;37.828;2022-11-25T04:21:44;7.40;61.40
40636;DHT22;26642;55.766;37.828;2022-11-25T04:24:10;7.40;61.10
40636;DHT22;26642;55.766;37.828;2022-11-25T04:26:36;7.40;60.80
40636;DHT22;26642;55.766;37.828;2022-11-25T04:29:02;7.40;60.60
40636;DHT22;26642;55.766;37.828;2022-11-25T04:31:28;7.40;60.60
40636;DHT22;26642;55.766;37.828;2022-11-25T04:33:54;7.40;60.50
40636;DHT22;26642;55.766;37.828;2022-11-25T04:36:22;7.40;60.60
40636;DHT22;26642;55.766;37.828;2022-11-25T04:38:49;7.40;60.40
40636;DHT22;26642;55.766;37.828;2022-11-25T04:41:16;7.40;60.40
40636;DHT22;26642;55.766;37.828;2022-11-25T04:43:44;7.40;60.20
40636;DHT22;26642;55.766;37.828;2022-11-25T04:46:16;7.40;60.10
40636;DHT22;26642;55.766;37.828;2022-11-25T04:48:47;7.40;60.20
40636;DHT22;26642;55.766;37.828;2022-11-25T04:51:14;7.40;60.20
40636;DHT22;26642;55.766;37.828;2022-11-25T04:53:40;7.40;60.30
40636;DHT22;26642;55.766;37.828;2022-11-25T04:56:15;7.40;60.50
40636;DHT22;26642;55.766;37.828;2022-11-25T04:58:43;7.40;60.50
40636;DHT22;26642;55.766;37.828;2022-11-25T05:01:28;7.40;60.60
40636;DHT22;26642;55.766;37.828;2022-11-25T05:04:02;7.40;60.60
40636;DHT22;26642;55.766;37.828;2022-11-25T05:06:28;7.40;60.70
40636;DHT22;26642;55.766;37.828;2022-11-25T05:08:54;7.40;60.80
40636;DHT22;26642;55.766;37.828;2022-11-25T05:11:22;7.40;60.90
40636;DHT22;26642;55.766;37.828;2022-11-25T05:13:49;7.40;61.10
40636;DHT22;26642;55.766;37.828;2022-11-25T05:16:15;7.40;61.20
40636;DHT22;26642;55.766;37.828;2022-11-25T05:18:41;7.40;61.10
40636;DHT22;26642;55.766;37.828;2022-11-25T05:21:07;7.40;60.90
40636;DHT22;26642;55.766;37.828;2022-11-25T05:23:37;7.40;60.90
40636;DHT22;26642;55.766;37.828;2022-11-25T05:26:03;7.40;61.00
40636;DHT22;26642;55.766;37.828;2022-11-25T05:28:37;7.40;60.80
40636;DHT22;26642;55.766;37.828;2022-11-25T05:31:03;7.40;60.80
40636;DHT22;26642;55.766;37.828;2022-11-25T05:33:29;7.40;60.80
40636;DHT22;26642;55.766;37.828;2022-11-25T05:36:01;7.40;60.80
40636;DHT22;26642;55.766;37.828;2022-11-25T05:38:34;7.40;60.80
40636;DHT22;26642;55.766;37.828;2022-11-25T05:41:03;7.40;60.70
40636;DHT22;26642;55.766;37.828;2022-11-25T05:43:31;7.40;60.60
40636;DHT22;26642;55.766;37.828;2022-11-25T05:45:59;7.40;60.60
40636;DHT22;26642;55.766;37.828;2022-11-25T05:48:25;7.40;60.50
40636;DHT22;26642;55.766;37.828;2022-11-25T05:50:51;7.40;60.40
40636;DHT22;26642;55.766;37.828;2022-11-25T05:53:21;7.40;60.90
40636;DHT22;26642;55.766;37.828;2022-11-25T05:56:00;7.40;60.20
40636;DHT22;26642;55.766;37.828;2022-11-25T05:58:46;7.40;66.70
40636;DHT22;26642;55.766;37.828;2022-11-25T06:01:14;7.50;72.40
40636;DHT22;26642;55.766;37.828;2022-11-25T06:03:41;7.60;74.20
40636;DHT22;26642;55.766;37.828;2022-11-25T06:06:09;7.70;70.80
40636;DHT22;26642;55.766;37.828;2022-11-25T06:08:37;7.80;68.70
40636;DHT22;26642;55.766;37.828;2022-11-25T06:11:06;7.90;65.70
40636;DHT22;26642;55.766;37.828;2022-11-25T06:13:32;7.90;63.20
40636;DHT22;26642;55.766;37.828;2022-11-25T06:15:58;7.90;61.30
40636;DHT22;26642;55.766;37.828;2022-11-25T06:18:24;7.80;59.70
40636;DHT22;26642;55.766;37.828;2022-11-25T06:20:57;7.70;58.60
40636;DHT22;26642;55.766;37.828;2022-11-25T06:23:24;7.70;57.80
40636;DHT22;26642;55.766;37.828;2022-11-25T06:25:50;7.60;57.30
40636;DHT22;26642;55.766;37.828;2022-11-25T06:28:17;7.60;57.00
40636;DHT22;26642;55.766;37.828;2022-11-25T06:30:47;7.50;56.80
40636;DHT22;26642;55.766;37.828;2022-11-25T06:33:23;7.50;56.70
40636;DHT22;26642;55.766;37.828;2022-11-25T06:35:49;7.50;56.50
40636;DHT22;26642;55.766;37.828;2022-11-25T06:38:15;7.40;56.20
40636;DHT22;26642;55.766;37.828;2022-11-25T06:40:41;7.30;56.20
40636;DHT22;26642;55.766;37.828;2022-11-25T06:43:07;7.30;55.90
40636;DHT22;26642;55.766;37.828;2022-11-25T06:45:33;7.30;56.00
40636;DHT22;26642;55.766;37.828;2022-11-25T06:47:59;7.20;55.90
40636;DHT22;26642;55.766;37.828;2022-11-25T06:50:25;7.20;55.80
40636;DHT22;26642;55.766;37.828;2022-11-25T06:52:50;7.20;55.90
40636;DHT22;26642;55.766;37.828;2022-11-25T06:55:16;7.10;55.80
40636;DHT22;26642;55.766;37.828;2022-11-25T06:57:42;7.10;55.70
40636;DHT22;26642;55.766;37.828;2022-11-25T07:00:08;7.00;55.60
40636;DHT22;26642;55.766;37.828;2022-11-25T07:02:34;7.00;55.60
40636;DHT22;26642;55.766;37.828;2022-11-25T07:05:00;7.00;55.60
40636;DHT22;26642;55.766;37.828;2022-11-25T07:07:26;7.00;55.60
40636;DHT22;26642;55.766;37.828;2022-11-25T07:09:52;6.90;55.50
40636;DHT22;26642;55.766;37.828;2022-11-25T07:12:18;6.90;55.60
40636;DHT22;26642;55.766;37.828;2022-11-25T07:14:44;6.90;55.50
40636;DHT22;26642;55.766;37.828;2022-11-25T07:17:10;6.90;55.50
40636;DHT22;26642;55.766;37.828;2022-11-25T07:19:35;6.80;55.50
40636;DHT22;26642;55.766;37.828;2022-11-25T07:22:01;6.80;55.40
40636;DHT22;26642;55.766;37.828;2022-11-25T07:36:21;6.70;55.00
40636;DHT22;26642;55.766;37.828;2022-11-25T07:38:47;6.60;56.30
40636;DHT22;26642;55.766;37.828;2022-11-25T07:41:16;6.70;55.50
40636;DHT22;26642;55.766;37.828;2022-11-25T07:43:46;6.60;55.00
40636;DHT22;26642;55.766;37.828;2022-11-25T07:46:18;6.70;55.10
40636;DHT22;26642;55.766;37.828;2022-11-25T07:48:45;6.70;55.00
40636;DHT22;26642;55.766;37.828;2022-11-25T07:51:21;6.60;55.00
40636;DHT22;26642;55.766;37.828;2022-11-25T07:53:48;6.60;55.00
40636;DHT22;26642;55.766;37.828;2022-11-25T07:56:15;6.60;55.10
40636;DHT22;26642;55.766;37.828;2022-11-25T07:58:41;6.50;55.00
40636;DHT22;26642;55.766;37.828;2022-11-25T08:01:09;6.50;55.00
40636;DHT22;26642;55.766;37.828;2022-11-25T08:03:36;6.50;55.00
40636;DHT22;26642;55.766;37.828;2022-11-25T08:06:08;6.50;55.10
40636;DHT22;26642;55.766;37.828;2022-11-25T08:08:36;6.40;55.00
40636;DHT22;26642;55.766;37.828;2022-11-25T08:11:10;6.40;55.00
40636;DHT22;26642;55.766;37.828;2022-11-25T08:13:37;6.40;55.20
40636;DHT22;26642;55.766;37.828;2022-11-25T08:16:04;6.40;55.20
40636;DHT22;26642;55.766;37.828;2022-11-25T08:18:30;6.40;55.40
40636;DHT22;26642;55.766;37.828;2022-11-25T08:21:03;6.40;55.60
40636;DHT22;26642;55.766;37.828;2022-11-25T08:23:30;6.40;55.70
40636;DHT22;26642;55.766;37.828;2022-11-25T08:25:56;6.40;55.70
40636;DHT22;26642;55.766;37.828;2022-11-25T08:28:23;6.30;55.60
40636;DHT22;26642;55.766;37.828;2022-11-25T08:30:49;6.40;55.60
40636;DHT22;26642;55.766;37.828;2022-11-25T08:33:15;6.30;55.60
40636;DHT22;26642;55.766;37.828;2022-11-25T08:35:41;6.30;55.70
40636;DHT22;26642;55.766;37.828;2022-11-25T08:38:10;6.30;55.80
40636;DHT22;26642;55.766;37.828;2022-11-25T08:40:36;6.30;55.70
40636;DHT22;26642;55.766;37.828;2022-11-25T08:43:03;6.30;55.70
40636;DHT22;26642;55.766;37.828;2022-11-25T08:45:29;6.30;55.70
40636;DHT22;26642;55.766;37.828;2022-11-25T08:47:55;6.30;55.50
40636;DHT22;26642;55.766;37.828;2022-11-25T08:50:22;6.30;55.60
40636;DHT22;26642;55.766;37.828;2022-11-25T08:52:50;6.30;55.60
40636;DHT22;26642;55.766;37.828;2022-11-25T08:55:16;6.20;55.50
40636;DHT22;26642;55.766;37.828;2022-11-25T08:57:42;6.20;55.50
40636;DHT22;26642;55.766;37.828;2022-11-25T09:00:09;6.20;55.50
40636;DHT22;26642;55.766;37.828;2022-11-25T09:02:35;6.20;55.40
40636;DHT22;26642;55.766;37.828;2022-11-25T09:05:01;6.20;55.50
40636;DHT22;26642;55.766;37.828;2022-11-25T09:07:27;6.20;55.40
40636;DHT22;26642;55.766;37.828;2022-11-25T09:09:53;6.20;55.40
40636;DHT22;26642;55.766;37.828;2022-11-25T09:12:19;6.20;55.40
40636;DHT22;26642;55.766;37.828;2022-11-25T09:14:45;6.20;55.40
40636;DHT22;26642;55.766;37.828;2022-11-25T09:17:12;6.20;55.40
40636;DHT22;26642;55.766;37.828;2022-11-25T09:19:40;6.20;55.50
40636;DHT22;26642;55.766;37.828;2022-11-25T09:22:06;6.20;55.40
40636;DHT22;26642;55.766;37.828;2022-11-25T09:24:34;6.20;55.50
40636;DHT22;26642;55.766;37.828;2022-11-25T09:27:00;6.20;55.50
40636;DHT22;26642;55.766;37.828;2022-11-25T09:29:26;6.20;55.50
40636;DHT22;26642;55.766;37.828;2022-11-25T09:31:54;6.20;55.40
40636;DHT22;26642;55.766;37.828;2022-11-25T09:34:20;6.20;55.40
40636;DHT22;26642;55.766;37.828;2022-11-25T09:36:46;6.10;55.40
40636;DHT22;26642;55.766;37.828;2022-11-25T09:39:12;6.10;55.50
40636;DHT22;26642;55.766;37.828;2022-11-25T09:50:30;6.10;55.40
40636;DHT22;26642;55.766;37.828;2022-11-25T09:53:15;6.10;55.40
40636;DHT22;26642;55.766;37.828;2022-11-25T09:55:49;6.10;55.60
40636;DHT22;26642;55.766;37.828;2022-11-25T10:01:24;6.10;55.60
40636;DHT22;26642;55.766;37.828;2022-11-25T10:04:04;6.10;55.70
40636;DHT22;26642;55.766;37.828;2022-11-25T10:06:35;6.10;55.60
40636;DHT22;26642;55.766;37.828;2022-11-25T10:09:13;6.10;55.60
40636;DHT22;26642;55.766;37.828;2022-11-25T10:14:40;6.00;55.60
40636;DHT22;26642;55.766;37.828;2022-11-25T10:20:11;6.00;55.70
40636;DHT22;26642;55.766;37.828;2022-11-25T10:22:43;6.00;55.70
40636;DHT22;26642;55.766;37.828;2022-11-25T10:25:19;6.00;55.70
40636;DHT22;26642;55.766;37.828;2022-11-25T10:27:59;6.00;55.70
40636;DHT22;26642;55.766;37.828;2022-11-25T10:31:18;6.00;55.60
40636;DHT22;26642;55.766;37.828;2022-11-25T10:33:44;6.00;55.70
40636;DHT22;26642;55.766;37.828;2022-11-25T10:41:22;5.90;55.70
40636;DHT22;26642;55.766;37.828;2022-11-25T10:43:49;5.90;55.70
40636;DHT22;26642;55.766;37.828;2022-11-25T10:46:39;5.90;55.70
40636;DHT22;26642;55.766;37.828;2022-11-25T10:52:12;5.90;55.50
40636;DHT22;26642;55.766;37.828;2022-11-25T10:54:38;5.90;55.60
40636;DHT22;26642;55.766;37.828;2022-11-25T10:57:18;5.90;55.70
40636;DHT22;26642;55.766;37.828;2022-11-25T10:59:57;5.90;55.70
40636;DHT22;26642;55.766;37.828;2022-11-25T11:02:28;5.80;55.70
40636;DHT22;26642;55.766;37.828;2022-11-25T11:07:38;5.80;55.70
40636;DHT22;26642;55.766;37.828;2022-11-25T11:12:59;5.80;55.60
40636;DHT22;26642;55.766;37.828;2022-11-25T11:15:44;5.80;55.60
40636;DHT22;26642;55.766;37.828;2022-11-25T11:18:26;5.80;55.80
40636;DHT22;26642;55.766;37.828;2022-11-25T11:20:57;5.80;55.70
40636;DHT22;26642;55.766;37.828;2022-11-25T11:23:24;5.80;55.60
40636;DHT22;26642;55.766;37.828;2022-11-25T11:26:02;5.80;55.70
40636;DHT22;26642;55.766;37.828;2022-11-25T11:31:22;5.80;55.60
40636;DHT22;26642;55.766;37.828;2022-11-25T11:42:10;5.70;55.80
40636;DHT22;26642;55.766;37.828;2022-11-25T11:50:34;5.70;55.90
40636;DHT22;26642;55.766;37.828;2022-11-25T11:53:29;5.70;55.80
40636;DHT22;26642;55.766;37.828;2022-11-25T11:56:06;5.70;55.90
40636;DHT22;26642;55.766;37.828;2022-11-25T12:01:39;5.70;55.90
40636;DHT22;26642;55.766;37.828;2022-11-25T12:04:30;5.70;55.80
40636;DHT22;26642;55.766;37.828;2022-11-25T12:07:08;5.70;55.90
40636;DHT22;26642;55.766;37.828;2022-11-25T12:09:49;5.60;55.90
40636;DHT22;26642;55.766;37.828;2022-11-25T12:12:18;5.60;55.70
40636;DHT22;26642;55.766;37.828;2022-11-25T12:14:50;5.60;56.10
40636;DHT22;26642;55.766;37.828;2022-11-25T12:17:26;5.70;57.30
40636;DHT22;26642;55.766;37.828;2022-11-25T12:22:56;5.80;60.20
40636;DHT22;26642;55.766;37.828;2022-11-25T12:25:33;5.90;60.80
40636;DHT22;26642;55.766;37.828;2022-11-25T12:34:18;6.00;60.70
40636;DHT22;26642;55.766;37.828;2022-11-25T12:42:02;6.20;61.70
40636;DHT22;26642;55.766;37.828;2022-11-25T12:47:25;6.20;62.30
40636;DHT22;26642;55.766;37.828;2022-11-25T12:49:53;6.30;62.80
40636;DHT22;26642;55.766;37.828;2022-11-25T12:52:29;6.30;63.20
40636;DHT22;26642;55.766;37.828;2022-11-25T12:57:42;6.40;64.00
40636;DHT22;26642;55.766;37.828;2022-11-25T13:00:31;6.40;64.30
40636;DHT22;26642;55.766;37.828;2022-11-25T13:09:41;6.50;64.60
40636;DHT22;26642;55.766;37.828;2022-11-25T13:15:21;6.60;64.60
40636;DHT22;26642;55.766;37.828;2022-11-25T13:17:54;6.60;64.60
40636;DHT22;26642;55.766;37.828;2022-11-25T13:25:43;6.70;64.60
40636;DHT22;26642;55.766;37.828;2022-11-25T13:28:34;6.70;64.60
40636;DHT22;26642;55.766;37.828;2022-11-25T13:36:21;6.80;65.20
40636;DHT22;26642;55.766;37.828;2022-11-25T13:41:21;6.90;65.40
40636;DHT22;26642;55.766;37.828;2022-11-25T13:46:49;6.90;65.80
40636;DHT22;26642;55.766;37.828;2022-11-25T13:49:49;6.90;65.90
40636;DHT22;26642;55.766;37.828;2022-11-25T13:55:06;7.00;65.80
40636;DHT22;26642;55.766;37.828;2022-11-25T13:57:34;7.00;65.90
40636;DHT22;26642;55.766;37.828;2022-11-25T14:00:01;7.00;65.90
40636;DHT22;26642;55.766;37.828;2022-11-25T14:02:39;7.00;65.90
40636;DHT22;26642;55.766;37.828;2022-11-25T14:08:14;7.10;65.70
40636;DHT22;26642;55.766;37.828;2022-11-25T14:13:25;7.10;65.70
40636;DHT22;26642;55.766;37.828;2022-11-25T14:19:31;7.20;65.80
40636;DHT22;26642;55.766;37.828;2022-11-25T14:24:34;7.20;66.00
40636;DHT22;26642;55.766;37.828;2022-11-25T14:27:02;7.20;66.10
40636;DHT22;26642;55.766;37.828;2022-11-25T14:32:03;7.20;66.20
40636;DHT22;26642;55.766;37.828;2022-11-25T14:34:47;7.30;66.40
40636;DHT22;26642;55.766;37.828;2022-11-25T14:37:41;7.30;66.60
40636;DHT22;26642;55.766;37.828;2022-11-25T14:40:20;7.30;66.60
40636;DHT22;26642;55.766;37.828;2022-11-25T14:42:49;7.30;66.40
40636;DHT22;26642;55.766;37.828;2022-11-25T14:45:27;7.30;66.60
40636;DHT22;26642;55.766;37.828;2022-11-25T14:47:56;7.30;66.60
40636;DHT22;26642;55.766;37.828;2022-11-25T14:50:22;7.40;66.50
40636;DHT22;26642;55.766;37.828;2022-11-25T14:52:49;7.40;66.50
40636;DHT22;26642;55.766;37.828;2022-11-25T14:55:29;7.40;66.60
40636;DHT22;26642;55.766;37.828;2022-11-25T14:57:55;7.40;66.50
40636;DHT22;26642;55.766;37.828;2022-11-25T15:00:23;7.40;66.20
40636;DHT22;26642;55.766;37.828;2022-11-25T15:03:03;7.50;66.30
40636;DHT22;26642;55.766;37.828;2022-11-25T15:05:32;7.50;66.20
40636;DHT22;26642;55.766;37.828;2022-11-25T15:08:09;7.50;66.20
40636;DHT22;26642;55.766;37.828;2022-11-25T15:13:38;7.50;66.20
40636;DHT22;26642;55.766;37.828;2022-11-25T15:16:13;7.50;66.10
40636;DHT22;26642;55.766;37.828;2022-11-25T15:21:19;7.50;65.90
40636;DHT22;26642;55.766;37.828;2022-11-25T15:23:46;7.50;66.10
40636;DHT22;26642;55.766;37.828;2022-11-25T15:26:18;7.50;66.60
40636;DHT22;26642;55.766;37.828;2022-11-25T15:28:45;7.60;65.80
40636;DHT22;26642;55.766;37.828;2022-11-25T15:31:17;7.60;70.40
40636;DHT22;26642;55.766;37.828;2022-11-25T15:33:44;7.70;71.00
40636;DHT22;26642;55.766;37.828;2022-11-25T15:36:10;7.70;70.40
40636;DHT22;26642;55.766;37.828;2022-11-25T15:38:40;7.80;69.90
40636;DHT22;26642;55.766;37.828;2022-11-25T15:41:16;7.80;69.70
40636;DHT22;26642;55.766;37.828;2022-11-25T15:43:51;7.80;69.10
40636;DHT22;26642;55.766;37.828;2022-11-25T15:46:18;7.90;69.00
40636;DHT22;26642;55.766;37.828;2022-11-25T15:48:46;7.80;68.80
40636;DHT22;26642;55.766;37.828;2022-11-25T15:51:34;7.90;69.10
40636;DHT22;26642;55.766;37.828;2022-11-25T15:56:47;7.90;68.80
40636;DHT22;26642;55.766;37.828;2022-11-25T16:21:10;7.90;67.70
40636;DHT22;26642;55.766;37.828;2022-11-25T16:23:41;7.90;67.50
40636;DHT22;26642;55.766;37.828;2022-11-25T16:28:36;8.00;67.60
40636;DHT22;26642;55.766;37.828;2022-11-25T16:31:04;8.00;67.60
40636;DHT22;26642;55.766;37.828;2022-11-25T16:33:30;7.90;67.50
40636;DHT22;26642;55.766;37.828;2022-11-25T16:35:56;8.00;67.40
40636;DHT22;26642;55.766;37.828;2022-11-25T16:38:22;7.90;67.40
40636;DHT22;26642;55.766;37.828;2022-11-25T16:40:50;8.00;67.40
40636;DHT22;26642;55.766;37.828;2022-11-25T16:43:26;8.00;67.50
40636;DHT22;26642;55.766;37.828;2022-11-25T16:45:53;8.00;67.40
40636;DHT22;26642;55.766;37.828;2022-11-25T16:48:21;8.00;67.30
40636;DHT22;26642;55.766;37.828;2022-11-25T16:50:51;8.00;67.30
40636;DHT22;26642;55.766;37.828;2022-11-25T16:53:17;8.00;68.40
40636;DHT22;26642;55.766;37.828;2022-11-25T16:55:44;8.00;69.20
40636;DHT22;26642;55.766;37.828;2022-11-25T16:58:17;8.10;69.40
40636;DHT22;26642;55.766;37.828;2022-11-25T17:00:50;8.10;69.70
40636;DHT22;26642;55.766;37.828;2022-11-25T17:03:17;8.10;70.00
40636;DHT22;26642;55.766;37.828;2022-11-25T17:05:44;8.10;69.90
40636;DHT22;26642;55.766;37.828;2022-11-25T17:08:11;8.10;69.80
40636;DHT22;26642;55.766;37.828;2022-11-25T17:10:38;8.10;69.70
40636;DHT22;26642;55.766;37.828;2022-11-25T17:13:05;8.10;69.60
40636;DHT22;26642;55.766;37.828;2022-11-25T17:15:33;8.10;69.40
40636;DHT22;26642;55.766;37.828;2022-11-25T17:18:06;8.10;69.10
40636;DHT22;26642;55.766;37.828;2022-11-25T17:20:32;8.10;68.90
40636;DHT22;26642;55.766;37.828;2022-11-25T17:22:58;8.10;68.70
40636;DHT22;26642;55.766;37.828;2022-11-25T17:25:25;8.10;68.50
40636;DHT22;26642;55.766;37.828;2022-11-25T17:27:53;8.10;68.30
40636;DHT22;26642;55.766;37.828;2022-11-25T17:30:25;8.10;68.10
40636;DHT22;26642;55.766;37.828;2022-11-25T17:33:02;8.10;68.00
40636;DHT22;26642;55.766;37.828;2022-11-25T17:35:28;8.10;68.10
40636;DHT22;26642;55.766;37.828;2022-11-25T17:37:56;8.10;68.00
40636;DHT22;26642;55.766;37.828;2022-11-25T17:40:23;8.10;67.90
40636;DHT22;26642;55.766;37.828;2022-11-25T17:42:48;8.10;67.70
40636;DHT22;26642;55.766;37.828;2022-11-25T17:45:17;8.10;67.60
40636;DHT22;26642;55.766;37.828;2022-11-25T17:47:43;8.10;67.50
40636;DHT22;26642;55.766;37.828;2022-11-25T17:50:21;8.10;67.40
40636;DHT22;26642;55.766;37.828;2022-11-25T17:52:47;8.10;67.30
40636;DHT22;26642;55.766;37.828;2022-11-25T17:55:14;8.10;67.20
40636;DHT22;26642;55.766;37.828;2022-11-25T17:57:48;8.10;67.30
40636;DHT22;26642;55.766;37.828;2022-11-25T18:00:19;8.10;67.60
40636;DHT22;26642;55.766;37.828;2022-11-25T18:02:46;8.10;67.60
40636;DHT22;26642;55.766;37.828;2022-11-25T18:05:17;8.10;67.70
40636;DHT22;26642;55.766;37.828;2022-11-25T18:07:45;8.10;67.80
40636;DHT22;26642;55.766;37.828;2022-11-25T18:10:13;8.10;67.90
40636;DHT22;26642;55.766;37.828;2022-11-25T18:12:40;8.20;68.00
40636;DHT22;26642;55.766;37.828;2022-11-25T18:15:14;8.10;68.10
40636;DHT22;26642;55.766;37.828;2022-11-25T18:17:40;8.10;68.10
40636;DHT22;26642;55.766;37.828;2022-11-25T18:20:19;8.10;68.20
40636;DHT22;26642;55.766;37.828;2022-11-25T18:22:46;8.10;67.90
40636;DHT22;26642;55.766;37.828;2022-11-25T18:25:18;8.10;67.90
40636;DHT22;26642;55.766;37.828;2022-11-25T18:27:44;8.10;68.20
40636;DHT22;26642;55.766;37.828;2022-11-25T18:30:18;8.10;68.10
40636;DHT22;26642;55.766;37.828;2022-11-25T18:32:45;8.10;68.20
40636;DHT22;26642;55.766;37.828;2022-11-25T18:35:18;8.10;68.10
40636;DHT22;26642;55.766;37.828;2022-11-25T18:37:45;8.10;67.90
40636;DHT22;26642;55.766;37.828;2022-11-25T18:40:11;8.10;67.80
40636;DHT22;26642;55.766;37.828;2022-11-25T18:42:39;8.10;67.50
40636;DHT22;26642;55.766;37.828;2022-11-25T18:45:18;8.10;67.50